Time;durP1;ratioP1;P1;durP2;ratioP2;P2;SDS_P1;SDS_P2;PMS_P1;PMS_P2;Temp;Humidity;BMP_temperature;BMP_pressure;BME280_temperature;BME280_humidity;BME280_pressure;Samples;Min_cycle;Max_cycle;Signal;HPM_P1;HPM_P2
2022/11/22 00:00:02;;;;;;;;;0.00;0.00;;;;;;;;5045678;28;61966;-84
2022/11/22 00:02:28;;;;;;;;;0.00;0.00;;;;;;;;5064431;28;61749;-84
2022/11/22 00:04:53;;;;;;;;;1.00;0.00;;;;;;;;5063948;28;61730;-84
2022/11/22 00:07:18;;;;;;;;;3.00;0.75;;;;;;;;5045547;28;63620;-84
2022/11/22 00:09:43;;;;;;;;;1.00;1.00;;;;;;;;5045746;28;61813;-83
2022/11/22 00:12:09;;;;;;;;;0.25;0.00;;;;;;;;5064583;28;61648;-83
2022/11/22 00:14:34;;;;;;;;;1.25;0.00;;;;;;;;5046377;28;61950;-83
2022/11/22 00:16:59;;;;;;;;;1.25;1.00;;;;;;;;5044818;28;65145;-83
2022/11/22 00:19:24;;;;;;;;;0.25;0.25;;;;;;;;5045287;28;61796;-84
2022/11/22 00:21:49;;;;;;;;;2.00;0.75;;;;;;;;5063758;28;61952;-84
2022/11/22 00:24:15;;;;;;;;;1.00;0.00;;;;;;;;5046083;28;61706;-79
2022/11/22 00:26:40;;;;;;;;;0.00;0.00;;;;;;;;5063316;28;61690;-83
2022/11/22 00:29:05;;;;;;;;;1.50;0.50;;;;;;;;5045554;28;61902;-84
2022/11/22 00:31:31;;;;;;;;;1.25;0.00;;;;;;;;5064043;28;62023;-83
2022/11/22 00:33:56;;;;;;;;;1.00;1.00;;;;;;;;5063223;28;61857;-83
2022/11/22 00:36:21;;;;;;;;;1.50;0.00;;;;;;;;5045191;28;64639;-83
2022/11/22 00:38:47;;;;;;;;;0.00;0.00;;;;;;;;5063649;28;61793;-84
2022/11/22 00:41:12;;;;;;;;;0.25;0.25;;;;;;;;5045074;28;62790;-84
2022/11/22 00:43:37;;;;;;;;;1.25;1.00;;;;;;;;5045897;28;61866;-84
2022/11/22 00:46:02;;;;;;;;;3.00;0.00;;;;;;;;5062203;28;61798;-83
2022/11/22 00:48:28;;;;;;;;;0.00;0.00;;;;;;;;5062553;28;62083;-82
2022/11/22 00:50:54;;;;;;;;;1.00;1.00;;;;;;;;5063693;28;61942;-83
2022/11/22 00:53:20;;;;;;;;;2.50;0.50;;;;;;;;5045497;28;62142;-83
2022/11/22 00:55:45;;;;;;;;;0.00;0.00;;;;;;;;5045094;28;64863;-83
2022/11/22 00:58:10;;;;;;;;;0.00;0.00;;;;;;;;5062803;28;62049;-83
2022/11/22 01:00:35;;;;;;;;;1.00;1.00;;;;;;;;5044777;28;61921;-84
2022/11/22 01:03:01;;;;;;;;;2.00;2.00;;;;;;;;5063324;28;62159;-83
2022/11/22 01:05:26;;;;;;;;;0.50;0.00;;;;;;;;5062757;28;62801;-83
2022/11/22 01:07:52;;;;;;;;;0.00;0.00;;;;;;;;5045168;28;62044;-84
2022/11/22 01:10:17;;;;;;;;;2.50;0.00;;;;;;;;5045114;28;61989;-84
2022/11/22 01:12:43;;;;;;;;;1.00;0.00;;;;;;;;5063483;28;61742;-83
2022/11/22 01:15:08;;;;;;;;;0.00;0.00;;;;;;;;5043977;28;63650;-84
2022/11/22 01:17:33;;;;;;;;;0.00;0.00;;;;;;;;5062960;28;62085;-84
2022/11/22 01:19:59;;;;;;;;;0.00;0.00;;;;;;;;5044801;28;61917;-83
2022/11/22 01:22:24;;;;;;;;;0.50;0.00;;;;;;;;5063113;28;61703;-84
2022/11/22 01:24:49;;;;;;;;;0.00;0.00;;;;;;;;5062742;28;61895;-84
2022/11/22 01:27:14;;;;;;;;;0.00;0.00;;;;;;;;5062478;28;62037;-83
2022/11/22 01:29:40;;;;;;;;;1.50;0.00;;;;;;;;5062726;28;62154;-82
2022/11/22 01:32:05;;;;;;;;;0.50;0.50;;;;;;;;5062767;28;61844;-84
2022/11/22 01:34:30;;;;;;;;;1.50;0.00;;;;;;;;5061996;28;62168;-84
2022/11/22 01:36:56;;;;;;;;;0.75;0.00;;;;;;;;5062933;28;61947;-84
2022/11/22 01:39:21;;;;;;;;;1.50;0.00;;;;;;;;5062454;28;62074;-84
2022/11/22 01:41:46;;;;;;;;;6.25;0.00;;;;;;;;5063024;28;61826;-84
2022/11/22 01:44:19;;;;;;;;;2.00;0.00;;;;;;;;5043759;28;63591;-84
2022/11/22 01:46:47;;;;;;;;;0.50;0.00;;;;;;;;5044019;28;61683;-83
2022/11/22 01:49:45;;;;;;;;;1.50;0.00;;;;;;;;5062184;28;61831;-84
2022/11/22 01:52:16;;;;;;;;;1.00;0.00;;;;;;;;4964114;28;61957;-82
2022/11/22 01:54:44;;;;;;;;;0.75;0.00;;;;;;;;4979195;28;61800;-82
2022/11/22 01:57:12;;;;;;;;;0.00;0.00;;;;;;;;4979709;28;62345;-83
2022/11/22 01:59:40;;;;;;;;;2.75;1.00;;;;;;;;4962192;28;61987;-83
2022/11/22 02:02:06;;;;;;;;;1.50;0.75;;;;;;;;4979604;28;61929;-83
2022/11/22 02:04:33;;;;;;;;;0.00;0.00;;;;;;;;4979557;28;62888;-83
2022/11/22 02:07:01;;;;;;;;;1.00;0.00;;;;;;;;4964211;28;62215;-83
2022/11/22 02:09:26;;;;;;;;;0.75;0.75;;;;;;;;4963766;28;61991;-84
2022/11/22 02:11:54;;;;;;;;;0.00;0.00;;;;;;;;4980630;28;62027;-84
2022/11/22 02:14:23;;;;;;;;;2.00;1.00;;;;;;;;4979775;28;61912;-84
2022/11/22 02:16:48;;;;;;;;;0.50;0.25;;;;;;;;4979581;28;62087;-83
2022/11/22 02:19:31;;;;;;;;;2.00;0.00;;;;;;;;4980175;28;61959;-84
2022/11/22 02:21:59;;;;;;;;;2.25;0.75;;;;;;;;4964217;28;61734;-83
2022/11/22 02:24:27;;;;;;;;;0.50;0.00;;;;;;;;4979506;28;61936;-83
2022/11/22 02:26:52;;;;;;;;;1.25;1.00;;;;;;;;4989942;28;61958;-83
2022/11/22 02:29:18;;;;;;;;;2.00;1.00;;;;;;;;5043663;28;62036;-84
2022/11/22 02:31:45;;;;;;;;;2.00;0.00;;;;;;;;5061330;28;61866;-83
2022/11/22 02:34:11;;;;;;;;;0.50;0.00;;;;;;;;5043424;28;63965;-83
2022/11/22 02:36:40;;;;;;;;;0.00;0.00;;;;;;;;5043427;28;62453;-83
2022/11/22 02:39:06;;;;;;;;;0.00;0.00;;;;;;;;5062067;28;61634;-84
2022/11/22 02:41:32;;;;;;;;;1.00;0.00;;;;;;;;5061963;28;62016;-83
2022/11/22 02:43:57;;;;;;;;;1.50;0.00;;;;;;;;5061144;28;61724;-84
2022/11/22 02:46:23;;;;;;;;;0.00;0.00;;;;;;;;5061303;28;61660;-83
2022/11/22 02:48:48;;;;;;;;;0.00;0.00;;;;;;;;5043184;28;61832;-84
2022/11/22 02:51:15;;;;;;;;;2.00;1.00;;;;;;;;5062079;28;61687;-83
2022/11/22 02:53:51;;;;;;;;;0.00;0.00;;;;;;;;5042522;28;63836;-84
2022/11/22 02:56:16;;;;;;;;;0.75;0.00;;;;;;;;5061846;28;61881;-84
2022/11/22 02:58:42;;;;;;;;;0.00;0.00;;;;;;;;5042627;28;61929;-83
2022/11/22 03:01:07;;;;;;;;;0.75;0.75;;;;;;;;5061593;28;61731;-84
2022/11/22 03:03:32;;;;;;;;;1.00;0.00;;;;;;;;5061121;28;61888;-84
2022/11/22 03:05:58;;;;;;;;;0.00;0.00;;;;;;;;5061306;28;61912;-84
2022/11/22 03:08:23;;;;;;;;;0.00;0.00;;;;;;;;5061669;28;61783;-84
2022/11/22 03:10:48;;;;;;;;;0.50;0.00;;;;;;;;5061130;28;61774;-84
2022/11/22 03:13:13;;;;;;;;;0.00;0.00;;;;;;;;5060582;28;61732;-83
2022/11/22 03:15:39;;;;;;;;;0.00;0.00;;;;;;;;5060935;28;61905;-84
2022/11/22 03:18:04;;;;;;;;;0.25;0.25;;;;;;;;5061495;28;61864;-84
2022/11/22 03:20:31;;;;;;;;;1.00;0.00;;;;;;;;5061720;28;61663;-84
2022/11/22 03:22:58;;;;;;;;;0.25;0.00;;;;;;;;5042068;28;64621;-84
2022/11/22 03:25:24;;;;;;;;;0.00;0.00;;;;;;;;5061519;28;61721;-83
2022/11/22 03:27:50;;;;;;;;;2.00;0.00;;;;;;;;5060608;28;62072;-84
2022/11/22 03:30:15;;;;;;;;;1.25;0.00;;;;;;;;5042963;28;61861;-84
2022/11/22 03:32:40;;;;;;;;;1.00;0.00;;;;;;;;5042387;28;63516;-83
2022/11/22 03:35:06;;;;;;;;;1.00;0.00;;;;;;;;5060664;28;61985;-83
2022/11/22 03:37:31;;;;;;;;;1.25;0.25;;;;;;;;5060999;28;61814;-83
2022/11/22 03:39:56;;;;;;;;;0.00;0.00;;;;;;;;5042584;28;61772;-83
2022/11/22 03:42:21;;;;;;;;;0.00;0.00;;;;;;;;5060266;28;63221;-84
2022/11/22 03:44:47;;;;;;;;;0.00;0.00;;;;;;;;5042646;28;61728;-83
2022/11/22 03:47:12;;;;;;;;;0.00;0.00;;;;;;;;5060794;28;61600;-83
2022/11/22 03:49:37;;;;;;;;;5.75;1.00;;;;;;;;5061456;28;62366;-83
2022/11/22 03:52:03;;;;;;;;;4.00;0.50;;;;;;;;5059583;28;62770;-84
2022/11/22 03:54:28;;;;;;;;;1.75;0.25;;;;;;;;5061197;28;61886;-84
2022/11/22 03:56:53;;;;;;;;;0.00;0.00;;;;;;;;5060466;28;62113;-84
2022/11/22 03:59:18;;;;;;;;;2.00;0.00;;;;;;;;5060903;28;61746;-84
2022/11/22 04:01:44;;;;;;;;;1.25;0.00;;;;;;;;5059873;28;62790;-84
2022/11/22 04:04:09;;;;;;;;;0.00;0.00;;;;;;;;5060586;28;61769;-83
2022/11/22 04:06:34;;;;;;;;;0.25;0.25;;;;;;;;5061001;28;62106;-85
2022/11/22 04:09:00;;;;;;;;;0.50;0.00;;;;;;;;5060540;28;61828;-84
2022/11/22 04:11:25;;;;;;;;;1.25;0.00;;;;;;;;5041770;28;64066;-83
2022/11/22 04:16:34;;;;;;;;;1.25;0.00;;;;;;;;5060486;28;61809;-84
2022/11/22 04:18:59;;;;;;;;;0.25;0.00;;;;;;;;5060873;28;61816;-84
2022/11/22 04:21:33;;;;;;;;;0.00;0.00;;;;;;;;5041643;28;64125;-83
2022/11/22 04:26:45;;;;;;;;;1.50;0.25;;;;;;;;5063862;28;61989;-84
2022/11/22 04:29:11;;;;;;;;;0.75;0.75;;;;;;;;5045448;28;61904;-83
2022/11/22 04:34:20;;;;;;;;;0.00;0.00;;;;;;;;5063443;28;61905;-83
2022/11/22 04:36:45;;;;;;;;;0.00;0.00;;;;;;;;5063793;28;61846;-83
2022/11/22 04:39:10;;;;;;;;;0.00;0.00;;;;;;;;5063419;28;62049;-84
2022/11/22 04:41:36;;;;;;;;;0.00;0.00;;;;;;;;5045053;28;63644;-84
2022/11/22 04:46:45;;;;;;;;;0.00;0.00;;;;;;;;5063754;28;61816;-84
2022/11/22 04:49:10;;;;;;;;;0.00;0.00;;;;;;;;5062765;28;62152;-84
2022/11/22 04:54:21;;;;;;;;;0.00;0.00;;;;;;;;5063356;28;61725;-84
2022/11/22 04:56:47;;;;;;;;;0.00;0.00;;;;;;;;5045483;28;62032;-84
2022/11/22 04:59:12;;;;;;;;;0.00;0.00;;;;;;;;5063145;28;61978;-83
2022/11/22 05:01:37;;;;;;;;;0.00;0.00;;;;;;;;5062282;28;61877;-84
2022/11/22 05:04:03;;;;;;;;;0.50;0.50;;;;;;;;5045357;28;61849;-84
2022/11/22 05:06:28;;;;;;;;;1.00;0.00;;;;;;;;5063176;28;62120;-84
2022/11/22 05:08:53;;;;;;;;;0.00;0.00;;;;;;;;5045203;28;62236;-84
2022/11/22 05:11:19;;;;;;;;;3.00;0.00;;;;;;;;5044231;28;63490;-84
2022/11/22 05:13:44;;;;;;;;;0.00;0.00;;;;;;;;5063474;28;61731;-84
2022/11/22 05:16:10;;;;;;;;;1.00;1.00;;;;;;;;5044956;28;62010;-84
2022/11/22 05:18:36;;;;;;;;;1.00;0.00;;;;;;;;5044571;28;61701;-83
2022/11/22 05:21:11;;;;;;;;;1.75;0.00;;;;;;;;5062648;28;61841;-83
2022/11/22 05:23:55;;;;;;;;;0.00;0.00;;;;;;;;5044543;28;61770;-84
2022/11/22 05:26:20;;;;;;;;;0.00;0.00;;;;;;;;5063179;28;61864;-84
2022/11/22 05:28:46;;;;;;;;;1.75;0.00;;;;;;;;5063060;28;61952;-84
2022/11/22 05:31:12;;;;;;;;;2.00;0.00;;;;;;;;5062238;28;62598;-84
2022/11/22 05:33:39;;;;;;;;;0.50;0.00;;;;;;;;5044318;28;61838;-83
2022/11/22 05:36:05;;;;;;;;;2.00;0.00;;;;;;;;5044777;28;61915;-84
2022/11/22 05:38:30;;;;;;;;;0.25;0.00;;;;;;;;5044475;28;62046;-84
2022/11/22 05:40:55;;;;;;;;;0.00;0.00;;;;;;;;5062590;28;61823;-84
2022/11/22 05:43:20;;;;;;;;;0.00;0.00;;;;;;;;5063318;28;61769;-85
2022/11/22 05:45:46;;;;;;;;;1.00;0.00;;;;;;;;5062136;28;63300;-85
2022/11/22 05:48:11;;;;;;;;;0.00;0.00;;;;;;;;5044827;28;62095;-84
2022/11/22 05:50:36;;;;;;;;;0.00;0.00;;;;;;;;5061766;28;61838;-85
2022/11/22 05:53:02;;;;;;;;;0.00;0.00;;;;;;;;5062613;28;61913;-84
2022/11/22 05:55:28;;;;;;;;;1.50;0.00;;;;;;;;5062716;28;61852;-84
2022/11/22 05:57:53;;;;;;;;;0.00;0.00;;;;;;;;5062655;28;61818;-85
2022/11/22 06:00:18;;;;;;;;;0.75;0.00;;;;;;;;5061571;28;61895;-84
2022/11/22 06:02:44;;;;;;;;;0.00;0.00;;;;;;;;5044069;28;61982;-84
2022/11/22 06:05:09;;;;;;;;;0.00;0.00;;;;;;;;5062053;28;61824;-84
2022/11/22 06:07:34;;;;;;;;;1.00;0.00;;;;;;;;5044111;28;61645;-85
2022/11/22 06:09:59;;;;;;;;;0.00;0.00;;;;;;;;5061915;28;61842;-85
2022/11/22 06:12:25;;;;;;;;;1.25;1.25;;;;;;;;5062363;28;62155;-86
2022/11/22 06:14:50;;;;;;;;;1.00;1.00;;;;;;;;5043822;28;61710;-85
2022/11/22 06:17:15;;;;;;;;;4.50;0.00;;;;;;;;5045450;28;61953;-85
2022/11/22 06:19:41;;;;;;;;;0.00;0.00;;;;;;;;5044693;28;65096;-84
2022/11/22 06:22:06;;;;;;;;;0.75;0.00;;;;;;;;5044139;28;61814;-86
2022/11/22 06:24:31;;;;;;;;;0.25;0.25;;;;;;;;5044510;28;61950;-86
2022/11/22 06:26:56;;;;;;;;;1.25;0.50;;;;;;;;5062467;28;61896;-85
2022/11/22 06:29:22;;;;;;;;;0.25;0.00;;;;;;;;5061072;28;62542;-85
2022/11/22 06:31:47;;;;;;;;;0.00;0.00;;;;;;;;5061118;28;61760;-85
2022/11/22 06:34:12;;;;;;;;;0.00;0.00;;;;;;;;5062450;28;61830;-85
2022/11/22 06:36:38;;;;;;;;;0.50;0.00;;;;;;;;5062580;28;61612;-83
2022/11/22 06:39:04;;;;;;;;;0.00;0.00;;;;;;;;5047806;28;63752;-83
2022/11/22 06:41:35;;;;;;;;;0.00;0.00;;;;;;;;5048502;28;62305;-85
2022/11/22 06:44:03;;;;;;;;;0.00;0.00;;;;;;;;5060825;28;61763;-85
2022/11/22 06:46:28;;;;;;;;;0.00;0.00;;;;;;;;5058847;28;62197;-84
2022/11/22 06:48:54;;;;;;;;;0.75;0.75;;;;;;;;5060367;28;62042;-84
2022/11/22 06:51:23;;;;;;;;;2.00;0.00;;;;;;;;5043070;28;62053;-83
2022/11/22 06:53:49;;;;;;;;;0.00;0.00;;;;;;;;5074709;28;61853;-85
2022/11/22 06:56:21;;;;;;;;;2.50;1.00;;;;;;;;5043854;28;61983;-84
2022/11/22 06:58:47;;;;;;;;;2.00;0.75;;;;;;;;5041351;28;64786;-86
2022/11/22 07:01:12;;;;;;;;;1.25;0.00;;;;;;;;5046059;28;62142;-85
2022/11/22 07:03:38;;;;;;;;;1.00;1.00;;;;;;;;5043382;28;62066;-85
2022/11/22 07:06:04;;;;;;;;;3.00;0.00;;;;;;;;5045350;28;61831;-85
2022/11/22 07:08:30;;;;;;;;;0.00;0.00;;;;;;;;5044709;28;63734;-85
2022/11/22 07:11:01;;;;;;;;;0.25;0.25;;;;;;;;5043661;28;62364;-85
2022/11/22 07:13:26;;;;;;;;;0.00;0.00;;;;;;;;5061309;28;62975;-86
2022/11/22 07:15:55;;;;;;;;;0.00;0.00;;;;;;;;5056201;28;61996;-85
2022/11/22 07:18:20;;;;;;;;;0.00;0.00;;;;;;;;5060129;28;62059;-86
2022/11/22 07:20:45;;;;;;;;;0.00;0.00;;;;;;;;5060663;28;61805;-85
2022/11/22 07:23:11;;;;;;;;;0.00;0.00;;;;;;;;5061137;28;61863;-85
2022/11/22 07:25:37;;;;;;;;;0.00;0.00;;;;;;;;5051690;28;61934;-85
2022/11/22 07:28:02;;;;;;;;;1.00;0.00;;;;;;;;5060497;28;61893;-85
2022/11/22 07:30:27;;;;;;;;;0.25;0.25;;;;;;;;5060774;28;61842;-84
2022/11/22 07:32:53;;;;;;;;;0.25;0.25;;;;;;;;5049396;28;62033;-82
2022/11/22 07:35:18;;;;;;;;;0.00;0.00;;;;;;;;5050396;28;62224;-83
2022/11/22 07:37:43;;;;;;;;;0.00;0.00;;;;;;;;5050572;28;63540;-84
2022/11/22 07:40:09;;;;;;;;;0.00;0.00;;;;;;;;5061265;28;62566;-84
2022/11/22 07:42:35;;;;;;;;;1.50;0.00;;;;;;;;5047970;28;61949;-81
2022/11/22 07:45:00;;;;;;;;;0.00;0.00;;;;;;;;5058778;28;61730;-82
2022/11/22 07:47:25;;;;;;;;;0.00;0.00;;;;;;;;5040327;28;64451;-81
2022/11/22 07:49:51;;;;;;;;;0.00;0.00;;;;;;;;5059290;28;62193;-86
2022/11/22 07:52:16;;;;;;;;;0.00;0.00;;;;;;;;5041291;28;61814;-81
2022/11/22 07:54:41;;;;;;;;;1.00;0.75;;;;;;;;5041949;28;62109;-84
2022/11/22 07:57:07;;;;;;;;;0.00;0.00;;;;;;;;5040871;28;63576;-82
2022/11/22 07:59:32;;;;;;;;;0.00;0.00;;;;;;;;5042329;28;62281;-83
2022/11/22 08:01:58;;;;;;;;;0.00;0.00;;;;;;;;5063227;28;61996;-82
2022/11/22 08:04:23;;;;;;;;;1.00;0.00;;;;;;;;5044913;28;61837;-80
2022/11/22 08:06:48;;;;;;;;;0.25;0.25;;;;;;;;5063123;28;61691;-83
2022/11/22 08:09:14;;;;;;;;;1.00;0.00;;;;;;;;5063127;28;62084;-84
2022/11/22 08:11:39;;;;;;;;;0.00;0.00;;;;;;;;5063437;28;62300;-83
2022/11/22 08:14:05;;;;;;;;;0.00;0.00;;;;;;;;5064065;28;61808;-85
2022/11/22 08:16:30;;;;;;;;;1.50;0.00;;;;;;;;5044423;28;62168;-83
2022/11/22 08:18:55;;;;;;;;;0.00;0.00;;;;;;;;5065216;28;61770;-82
2022/11/22 08:21:20;;;;;;;;;0.00;0.00;;;;;;;;5044603;28;61792;-83
2022/11/22 08:23:46;;;;;;;;;1.75;0.25;;;;;;;;5045235;28;61949;-83
2022/11/22 08:26:13;;;;;;;;;3.00;1.00;;;;;;;;5063282;28;61985;-83
2022/11/22 08:28:38;;;;;;;;;2.50;0.00;;;;;;;;5063491;28;61865;-82
2022/11/22 08:31:06;;;;;;;;;1.50;1.00;;;;;;;;5063251;28;61910;-82
2022/11/22 08:33:31;;;;;;;;;0.00;0.00;;;;;;;;5063514;28;62185;-84
2022/11/22 08:35:56;;;;;;;;;0.00;0.00;;;;;;;;5044899;28;64718;-84
2022/11/22 08:38:21;;;;;;;;;1.00;0.00;;;;;;;;5045974;28;61725;-84
2022/11/22 08:40:47;;;;;;;;;0.00;0.00;;;;;;;;5046067;28;61846;-85
2022/11/22 08:43:12;;;;;;;;;1.00;1.00;;;;;;;;5046373;28;61777;-86
2022/11/22 08:45:38;;;;;;;;;2.00;1.00;;;;;;;;5063318;28;62811;-81
2022/11/22 08:48:03;;;;;;;;;1.00;1.00;;;;;;;;5045448;28;61762;-83
2022/11/22 08:50:28;;;;;;;;;4.00;1.00;;;;;;;;5064040;28;61690;-82
2022/11/22 08:52:53;;;;;;;;;1.75;0.00;;;;;;;;5062990;28;62097;-83
2022/11/22 08:55:19;;;;;;;;;0.00;0.00;;;;;;;;5063857;28;62651;-86
2022/11/22 08:57:44;;;;;;;;;5.50;0.00;;;;;;;;5063827;28;61952;-81
2022/11/22 09:00:10;;;;;;;;;4.75;1.00;;;;;;;;5063434;28;62033;-82
2022/11/22 09:02:35;;;;;;;;;2.00;0.50;;;;;;;;5045724;28;61897;-84
2022/11/22 09:05:01;;;;;;;;;0.25;0.00;;;;;;;;5063331;28;61657;-84
2022/11/22 09:07:27;;;;;;;;;3.50;1.00;;;;;;;;5063689;28;61766;-82
2022/11/22 09:09:52;;;;;;;;;2.50;1.25;;;;;;;;5062479;28;61805;-84
2022/11/22 09:12:18;;;;;;;;;0.50;0.50;;;;;;;;5061184;28;61955;-81
2022/11/22 09:14:43;;;;;;;;;0.50;0.25;;;;;;;;5041964;28;64750;-81
2022/11/22 09:17:08;;;;;;;;;1.50;1.00;;;;;;;;5061847;28;62192;-82
2022/11/22 09:19:33;;;;;;;;;1.00;0.25;;;;;;;;5062042;28;62458;-81
2022/11/22 09:21:59;;;;;;;;;0.00;0.00;;;;;;;;5045615;28;62154;-84
2022/11/22 09:24:24;;;;;;;;;1.75;1.00;;;;;;;;5043766;28;63752;-82
2022/11/22 09:26:49;;;;;;;;;5.00;0.00;;;;;;;;5044637;28;61870;-79
2022/11/22 09:29:14;;;;;;;;;0.75;0.00;;;;;;;;5039305;28;62503;-80
2022/11/22 09:31:40;;;;;;;;;0.75;0.00;;;;;;;;5061313;28;61885;-82
2022/11/22 09:34:05;;;;;;;;;0.00;0.00;;;;;;;;5043144;28;63812;-80
2022/11/22 09:36:31;;;;;;;;;3.25;0.75;;;;;;;;5062453;28;61970;-79
2022/11/22 09:38:56;;;;;;;;;1.25;1.00;;;;;;;;5043340;28;62374;-80
2022/11/22 09:41:24;;;;;;;;;1.75;0.75;;;;;;;;5042156;28;61861;-79
2022/11/22 09:44:14;;;;;;;;;0.50;0.50;;;;;;;;5061374;28;62091;-80
2022/11/22 09:46:48;;;;;;;;;3.25;1.00;;;;;;;;5043716;28;62437;-79
2022/11/22 09:49:19;;;;;;;;;2.00;0.00;;;;;;;;5042873;28;62006;-80
2022/11/22 09:51:50;;;;;;;;;0.75;0.75;;;;;;;;5062008;28;62035;-80
2022/11/22 09:54:19;;;;;;;;;2.50;1.00;;;;;;;;5041460;28;62138;-79
2022/11/22 09:56:45;;;;;;;;;2.50;0.25;;;;;;;;5049131;28;62004;-80
2022/11/22 09:59:12;;;;;;;;;1.25;0.00;;;;;;;;5061148;28;62135;-79
2022/11/22 10:01:46;;;;;;;;;3.00;0.75;;;;;;;;5062155;28;61826;-79
2022/11/22 10:04:38;;;;;;;;;1.25;0.75;;;;;;;;5043522;28;64086;-79
2022/11/22 10:07:11;;;;;;;;;1.25;0.75;;;;;;;;5058273;28;62142;-79
2022/11/22 10:09:46;;;;;;;;;2.25;1.00;;;;;;;;5043614;28;61801;-79
2022/11/22 10:12:18;;;;;;;;;5.00;0.25;;;;;;;;5060025;28;62321;-79
2022/11/22 10:14:43;;;;;;;;;1.00;1.00;;;;;;;;5039941;28;63452;-78
2022/11/22 10:17:25;;;;;;;;;2.00;2.00;;;;;;;;5060774;28;62239;-79
2022/11/22 10:19:59;;;;;;;;;1.00;1.00;;;;;;;;5059130;28;61849;-79
2022/11/22 10:22:28;;;;;;;;;3.50;0.00;;;;;;;;5057767;28;61882;-79
2022/11/22 10:24:53;;;;;;;;;0.00;0.00;;;;;;;;5042245;28;63745;-78
2022/11/22 10:27:18;;;;;;;;;1.50;1.50;;;;;;;;5043662;28;62077;-79
2022/11/22 10:29:50;;;;;;;;;1.25;1.00;;;;;;;;5062036;28;62045;-79
2022/11/22 10:32:15;;;;;;;;;0.25;0.25;;;;;;;;5062519;28;61791;-79
2022/11/22 10:35:06;;;;;;;;;2.00;0.75;;;;;;;;5060907;28;62002;-79
2022/11/22 10:37:41;;;;;;;;;0.75;0.75;;;;;;;;5055677;28;62158;-79
2022/11/22 10:40:35;;;;;;;;;3.25;2.00;;;;;;;;5062418;28;61830;-79
2022/11/22 10:43:28;;;;;;;;;1.00;0.00;;;;;;;;5048925;28;61801;-79
2022/11/22 10:46:00;;;;;;;;;3.75;2.50;;;;;;;;5059367;28;62640;-79
2022/11/22 10:48:37;;;;;;;;;0.00;0.00;;;;;;;;5043540;28;61946;-79
2022/11/22 10:51:06;;;;;;;;;2.25;1.00;;;;;;;;5062162;28;61771;-79
2022/11/22 10:53:57;;;;;;;;;4.00;1.00;;;;;;;;5040222;28;62188;-79
2022/11/22 10:56:32;;;;;;;;;1.75;0.75;;;;;;;;5039044;28;61775;-79
2022/11/22 10:59:00;;;;;;;;;5.25;2.50;;;;;;;;5041211;28;62027;-80
2022/11/22 11:01:44;;;;;;;;;2.25;0.75;;;;;;;;5055016;28;61913;-78
2022/11/22 11:04:11;;;;;;;;;0.00;0.00;;;;;;;;5058478;28;61813;-80
2022/11/22 11:06:42;;;;;;;;;2.75;1.00;;;;;;;;5060675;28;62015;-78
2022/11/22 11:09:19;;;;;;;;;1.00;1.00;;;;;;;;5060307;28;61929;-79
2022/11/22 11:11:45;;;;;;;;;0.00;0.00;;;;;;;;5061292;28;61941;-78
2022/11/22 11:14:15;;;;;;;;;2.00;1.00;;;;;;;;5060548;28;62101;-78
2022/11/22 11:16:41;;;;;;;;;1.00;0.00;;;;;;;;5060596;28;63064;-78
2022/11/22 11:19:09;;;;;;;;;1.00;0.00;;;;;;;;5059783;28;61838;-79
2022/11/22 11:21:34;;;;;;;;;0.00;0.00;;;;;;;;5060696;28;62272;-80
2022/11/22 11:23:59;;;;;;;;;3.00;1.00;;;;;;;;5061663;28;61927;-79
2022/11/22 11:26:27;;;;;;;;;0.75;0.75;;;;;;;;5055046;28;63322;-79
2022/11/22 11:29:12;;;;;;;;;4.50;0.50;;;;;;;;5059992;28;61889;-79
2022/11/22 11:31:41;;;;;;;;;2.00;0.75;;;;;;;;5073943;28;62245;-78
2022/11/22 11:34:19;;;;;;;;;2.00;0.00;;;;;;;;5060209;28;62061;-79
2022/11/22 11:36:45;;;;;;;;;2.00;1.00;;;;;;;;5062731;28;62907;-78
2022/11/22 11:39:20;;;;;;;;;1.00;0.00;;;;;;;;5044952;28;62071;-79
2022/11/22 11:41:46;;;;;;;;;0.75;0.75;;;;;;;;5044967;28;62081;-79
2022/11/22 11:44:43;;;;;;;;;2.25;1.00;;;;;;;;5063453;28;62079;-81
2022/11/22 11:47:16;;;;;;;;;1.75;0.00;;;;;;;;5001290;28;64035;-80
2022/11/22 11:49:48;;;;;;;;;0.75;0.00;;;;;;;;4985625;28;61952;-79
2022/11/22 11:52:24;;;;;;;;;0.00;0.00;;;;;;;;4992201;28;62001;-78
2022/11/22 11:54:54;;;;;;;;;4.00;1.25;;;;;;;;5009712;28;62110;-79
2022/11/22 11:57:30;;;;;;;;;2.00;0.00;;;;;;;;5004627;28;61890;-79
2022/11/22 11:59:59;;;;;;;;;0.00;0.00;;;;;;;;4984764;28;62122;-78
2022/11/22 12:02:46;;;;;;;;;2.00;0.00;;;;;;;;5001939;28;61828;-79
2022/11/22 12:05:11;;;;;;;;;0.00;0.00;;;;;;;;5001959;28;62096;-78
2022/11/22 12:07:38;;;;;;;;;6.00;0.75;;;;;;;;4984682;28;64061;-79
2022/11/22 12:10:22;;;;;;;;;1.00;0.00;;;;;;;;5001113;28;61770;-78
2022/11/22 12:12:50;;;;;;;;;0.00;0.00;;;;;;;;4985278;28;62355;-78
2022/11/22 12:15:21;;;;;;;;;0.00;0.00;;;;;;;;5001570;28;61976;-79
2022/11/22 12:18:05;;;;;;;;;0.50;0.00;;;;;;;;4984915;28;65072;-79
2022/11/22 12:20:48;;;;;;;;;4.50;0.75;;;;;;;;5001507;28;62129;-79
2022/11/22 12:23:20;;;;;;;;;0.00;0.00;;;;;;;;5026481;28;61773;-79
2022/11/22 12:25:46;;;;;;;;;0.00;0.00;;;;;;;;5045794;28;61775;-79
2022/11/22 12:28:18;;;;;;;;;0.00;0.00;;;;;;;;5062826;28;62335;-79
2022/11/22 12:30:44;;;;;;;;;0.00;0.00;;;;;;;;5063639;28;62128;-79
2022/11/22 12:33:16;;;;;;;;;0.75;0.00;;;;;;;;5063565;28;61734;-78
2022/11/22 12:35:42;;;;;;;;;1.00;0.00;;;;;;;;5064308;28;62202;-79
2022/11/22 12:38:07;;;;;;;;;2.00;0.50;;;;;;;;5062830;28;62834;-79
2022/11/22 12:40:38;;;;;;;;;2.50;0.00;;;;;;;;5045635;28;61845;-79
2022/11/22 12:43:07;;;;;;;;;1.75;0.00;;;;;;;;5045673;28;61734;-79
2022/11/22 12:45:37;;;;;;;;;0.00;0.00;;;;;;;;5044509;28;61775;-79
2022/11/22 12:48:08;;;;;;;;;0.25;0.25;;;;;;;;5063272;28;61777;-79
2022/11/22 12:50:42;;;;;;;;;3.00;0.00;;;;;;;;5063352;28;61745;-79
2022/11/22 12:53:16;;;;;;;;;1.50;0.25;;;;;;;;5063469;28;62041;-79
2022/11/22 12:55:53;;;;;;;;;3.50;0.75;;;;;;;;5064074;28;61876;-79
2022/11/22 12:58:34;;;;;;;;;3.50;1.00;;;;;;;;5044612;28;63700;-79
2022/11/22 13:01:04;;;;;;;;;1.00;1.00;;;;;;;;5062960;28;61873;-79
2022/11/22 13:03:34;;;;;;;;;1.00;1.00;;;;;;;;5063526;28;62029;-79
2022/11/22 13:06:02;;;;;;;;;4.75;1.25;;;;;;;;5045889;28;61755;-84
2022/11/22 13:08:31;;;;;;;;;0.00;0.00;;;;;;;;5062447;28;62850;-79
2022/11/22 13:11:05;;;;;;;;;1.75;0.00;;;;;;;;5045445;28;61814;-79
2022/11/22 13:13:30;;;;;;;;;1.25;0.00;;;;;;;;5061685;28;62141;-78
2022/11/22 13:15:57;;;;;;;;;2.00;1.00;;;;;;;;5062454;28;61977;-78
2022/11/22 13:18:26;;;;;;;;;5.50;2.00;;;;;;;;5062254;28;61690;-78
2022/11/22 13:21:01;;;;;;;;;2.00;0.50;;;;;;;;5045226;28;62059;-78
2022/11/22 13:23:26;;;;;;;;;0.25;0.25;;;;;;;;5044681;28;61778;-78
2022/11/22 13:25:58;;;;;;;;;3.00;0.00;;;;;;;;5045365;28;61768;-78
2022/11/22 13:28:25;;;;;;;;;0.00;0.00;;;;;;;;5061099;28;61926;-78
2022/11/22 13:31:05;;;;;;;;;2.00;1.00;;;;;;;;5062601;28;61824;-78
2022/11/22 13:33:31;;;;;;;;;2.00;1.00;;;;;;;;5062128;28;61889;-78
2022/11/22 13:36:15;;;;;;;;;1.00;1.00;;;;;;;;5061923;28;61835;-77
2022/11/22 13:38:42;;;;;;;;;2.75;0.00;;;;;;;;5061896;28;61733;-78
2022/11/22 13:41:40;;;;;;;;;2.50;0.50;;;;;;;;5062935;28;61727;-78
2022/11/22 13:44:16;;;;;;;;;2.00;0.25;;;;;;;;5039669;28;62078;-78
2022/11/22 13:46:59;;;;;;;;;0.00;0.00;;;;;;;;5062706;28;61808;-78
2022/11/22 13:49:27;;;;;;;;;1.75;1.00;;;;;;;;5062013;28;61758;-78
2022/11/22 13:51:56;;;;;;;;;4.00;0.75;;;;;;;;5061125;28;62135;-78
2022/11/22 13:54:31;;;;;;;;;1.00;0.00;;;;;;;;5051002;28;62175;-78
2022/11/22 13:57:04;;;;;;;;;1.00;1.00;;;;;;;;5041558;28;61700;-78
2022/11/22 13:59:30;;;;;;;;;4.50;0.75;;;;;;;;5060147;28;61931;-78
2022/11/22 14:01:58;;;;;;;;;1.50;0.25;;;;;;;;5062235;28;61717;-78
2022/11/22 14:04:23;;;;;;;;;0.25;0.25;;;;;;;;5062833;28;61841;-78
2022/11/22 14:06:53;;;;;;;;;2.00;1.00;;;;;;;;5062213;28;61846;-78
2022/11/22 14:09:21;;;;;;;;;0.50;0.00;;;;;;;;5062289;28;62015;-78
2022/11/22 14:12:06;;;;;;;;;2.50;1.00;;;;;;;;5062339;28;61893;-78
2022/11/22 14:14:53;;;;;;;;;3.50;1.75;;;;;;;;4999574;28;62386;-77
2022/11/22 14:17:24;;;;;;;;;3.50;1.75;;;;;;;;4999539;28;62216;-78
2022/11/22 14:20:06;;;;;;;;;0.75;0.75;;;;;;;;4998431;28;63708;-78
2022/11/22 14:22:46;;;;;;;;;1.00;1.00;;;;;;;;5000083;28;62099;-77
2022/11/22 14:25:14;;;;;;;;;2.00;1.00;;;;;;;;4983444;28;62168;-78
2022/11/22 14:27:46;;;;;;;;;1.75;1.75;;;;;;;;4987510;28;62060;-78
2022/11/22 14:30:17;;;;;;;;;1.50;1.00;;;;;;;;4998114;28;62354;-78
2022/11/22 14:32:58;;;;;;;;;0.00;0.00;;;;;;;;4998918;28;61964;-78
2022/11/22 14:35:28;;;;;;;;;1.25;0.00;;;;;;;;4999288;28;61867;-78
2022/11/22 14:38:08;;;;;;;;;0.00;0.00;;;;;;;;4999450;28;61859;-78
2022/11/22 14:40:38;;;;;;;;;0.75;0.75;;;;;;;;4982910;28;63775;-78
2022/11/22 14:43:15;;;;;;;;;2.00;0.00;;;;;;;;4983203;28;61848;-78
2022/11/22 14:45:51;;;;;;;;;3.00;1.00;;;;;;;;4983158;28;61914;-78
2022/11/22 14:48:18;;;;;;;;;3.00;1.00;;;;;;;;4983296;28;61735;-78
2022/11/22 14:50:51;;;;;;;;;3.25;1.00;;;;;;;;4988514;28;64863;-78
2022/11/22 14:53:29;;;;;;;;;2.25;1.00;;;;;;;;5043880;28;62108;-78
2022/11/22 14:55:57;;;;;;;;;4.50;1.00;;;;;;;;5043661;28;61804;-78
2022/11/22 14:58:25;;;;;;;;;2.50;1.00;;;;;;;;5062114;28;61864;-77
2022/11/22 15:01:13;;;;;;;;;1.00;1.00;;;;;;;;5060529;28;63278;-78
2022/11/22 15:03:44;;;;;;;;;1.00;1.00;;;;;;;;5034318;28;62077;-78